Time;durP1;ratioP1;P1;durP2;ratioP2;P2;SDS_P1;SDS_P2;PMS_P1;PMS_P2;Temp;Humidity;BMP_temperature;BMP_pressure;BME280_temperature;BME280_humidity;BME280_pressure;Samples;Min_cycle;Max_cycle;Signal;HPM_P1;HPM_P2
2023/05/28 00:02:09;;;;;;;12.33;5.23;;;;;;;12.41;100.00;102285.97;4994761;28;20254;-74
2023/05/28 00:04:34;;;;;;;11.80;5.77;;;;;;;12.35;100.00;102284.88;5011200;28;20187;-75
2023/05/28 00:07:00;;;;;;;12.87;5.80;;;;;;;12.27;100.00;102276.03;5011285;28;20553;-76
2023/05/28 00:09:26;;;;;;;13.83;5.83;;;;;;;12.25;100.00;102278.53;5011282;28;20308;-73
2023/05/28 00:11:52;;;;;;;13.17;5.17;;;;;;;12.15;100.00;102276.47;5010986;28;20214;-74
2023/05/28 00:14:17;;;;;;;13.03;5.33;;;;;;;12.13;100.00;102275.50;5000043;28;20221;-73
2023/05/28 00:16:44;;;;;;;13.33;5.63;;;;;;;12.05;100.00;102269.25;5011041;28;20194;-75
2023/05/28 00:19:10;;;;;;;13.70;5.73;;;;;;;12.00;100.00;102275.03;4995005;28;21107;-73
2023/05/28 00:21:36;;;;;;;13.07;5.53;;;;;;;11.95;100.00;102264.63;5010638;28;20270;-73
2023/05/28 00:24:02;;;;;;;12.90;5.50;;;;;;;11.79;100.00;102266.53;5009256;28;20199;-73
2023/05/28 00:26:29;;;;;;;14.30;5.63;;;;;;;11.69;100.00;102272.13;4996058;28;20196;-74
2023/05/28 00:28:55;;;;;;;12.60;5.77;;;;;;;11.75;100.00;102272.38;5010648;28;20279;-75
2023/05/28 00:31:21;;;;;;;17.37;5.90;;;;;;;11.71;100.00;102273.09;4983531;28;20310;-74
2023/05/28 00:33:46;;;;;;;11.03;5.30;;;;;;;11.70;100.00;102266.22;5004364;28;20819;-73
2023/05/28 00:36:13;;;;;;;15.37;5.63;;;;;;;11.64;100.00;102273.66;4998749;28;20565;-74
2023/05/28 00:38:38;;;;;;;12.33;5.03;;;;;;;11.60;100.00;102270.09;5010674;28;20679;-74
2023/05/28 00:41:04;;;;;;;12.03;5.87;;;;;;;11.59;100.00;102280.28;4992061;28;20302;-73
2023/05/28 00:43:30;;;;;;;13.60;5.43;;;;;;;11.44;100.00;102283.16;4998787;28;20279;-73
2023/05/28 00:45:59;;;;;;;12.23;5.20;;;;;;;11.43;100.00;102285.66;5010658;28;20191;-73
2023/05/28 00:48:25;;;;;;;11.97;4.93;;;;;;;11.45;100.00;102282.31;4997767;28;20191;-75
2023/05/28 00:50:50;;;;;;;9.87;5.00;;;;;;;11.34;100.00;102286.13;5004626;28;20293;-74
2023/05/28 00:53:16;;;;;;;11.00;5.33;;;;;;;11.32;100.00;102282.66;5010093;28;20775;-74
2023/05/28 00:55:42;;;;;;;15.43;5.37;;;;;;;11.34;100.00;102281.00;4992710;28;20237;-75
2023/05/28 00:58:08;;;;;;;10.73;5.20;;;;;;;11.31;100.00;102283.47;4997580;28;20298;-74
2023/05/28 01:00:35;;;;;;;13.47;5.40;;;;;;;11.21;100.00;102276.25;5004687;28;20230;-73
2023/05/28 01:03:00;;;;;;;10.97;5.50;;;;;;;11.13;100.00;102275.06;4996496;28;20566;-74
2023/05/28 01:05:26;;;;;;;11.47;5.83;;;;;;;11.15;100.00;102265.72;4997929;28;20188;-74
2023/05/28 01:07:52;;;;;;;15.37;5.37;;;;;;;11.05;100.00;102273.84;5010362;28;20282;-74
2023/05/28 01:10:18;;;;;;;11.87;5.27;;;;;;;11.03;100.00;102267.81;5003130;28;20210;-74
2023/05/28 01:12:44;;;;;;;10.83;5.60;;;;;;;11.03;100.00;102261.78;5010141;28;20215;-74
2023/05/28 01:15:10;;;;;;;11.43;5.20;;;;;;;11.02;100.00;102262.63;5004523;28;20196;-74
2023/05/28 01:17:38;;;;;;;12.73;6.20;;;;;;;11.00;100.00;102264.22;5009905;28;20226;-73
2023/05/28 01:20:10;;;;;;;10.73;5.90;;;;;;;10.92;100.00;102268.19;4998436;28;20241;-73
2023/05/28 01:22:45;;;;;;;16.23;6.63;;;;;;;10.88;100.00;102266.31;4998061;28;20262;-74
2023/05/28 01:25:12;;;;;;;16.43;6.60;;;;;;;10.82;100.00;102266.94;4998657;28;20202;-73
2023/05/28 01:27:39;;;;;;;13.80;5.87;;;;;;;10.79;100.00;102255.69;5009554;28;20179;-74
2023/05/28 01:30:09;;;;;;;14.17;6.93;;;;;;;10.79;100.00;102255.69;4987540;28;20202;-74
2023/05/28 01:32:36;;;;;;;15.00;7.43;;;;;;;10.77;100.00;102257.28;4980750;28;20211;-73
2023/05/28 01:35:03;;;;;;;13.37;6.97;;;;;;;10.76;100.00;102263.22;4999837;28;20621;-73
2023/05/28 01:37:33;;;;;;;17.17;7.30;;;;;;;10.69;100.00;102251.84;4994636;28;20191;-73
2023/05/28 01:40:02;;;;;;;12.53;7.50;;;;;;;10.66;100.00;102255.97;5003158;28;21060;-74
2023/05/28 01:42:30;;;;;;;14.93;6.67;;;;;;;10.63;100.00;102254.19;4985558;28;20229;-73
2023/05/28 01:44:57;;;;;;;12.63;6.37;;;;;;;10.60;100.00;102245.50;5004602;28;20231;-74
2023/05/28 01:47:23;;;;;;;12.17;6.23;;;;;;;10.55;100.00;102250.41;5004439;28;20538;-73
2023/05/28 01:49:50;;;;;;;16.60;6.67;;;;;;;10.51;100.00;102252.78;5009227;28;20203;-73
2023/05/28 01:52:16;;;;;;;16.83;6.53;;;;;;;10.46;100.00;102250.03;4997725;28;20214;-74
2023/05/28 01:54:41;;;;;;;14.80;6.77;;;;;;;10.47;100.00;102249.19;5004932;28;20191;-74
2023/05/28 01:57:07;;;;;;;11.93;5.93;;;;;;;10.45;100.00;102250.84;4996911;28;21094;-73
2023/05/28 01:59:32;;;;;;;14.30;6.50;;;;;;;10.45;100.00;102255.06;5004679;28;20203;-73
2023/05/28 02:01:58;;;;;;;12.93;6.03;;;;;;;10.39;100.00;102253.16;5003749;28;20191;-74
2023/05/28 02:04:25;;;;;;;11.83;5.70;;;;;;;10.37;100.00;102248.78;4981809;28;20981;-74
2023/05/28 02:06:51;;;;;;;12.93;6.00;;;;;;;10.33;100.00;102252.88;5024440;28;20238;-74
2023/05/28 02:09:18;;;;;;;9.17;5.50;;;;;;;10.29;100.00;102253.56;4998092;28;20211;-73
2023/05/28 02:11:43;;;;;;;11.60;6.20;;;;;;;10.26;100.00;102239.75;4993753;28;20289;-72
2023/05/28 02:14:14;;;;;;;12.03;5.37;;;;;;;10.23;100.00;102242.19;5001816;28;20572;-74
2023/05/28 02:16:47;;;;;;;11.07;4.90;;;;;;;10.21;100.00;102231.00;4991609;28;20624;-73
2023/05/28 02:19:14;;;;;;;11.17;5.13;;;;;;;10.16;100.00;102238.50;4996289;28;20191;-72
2023/05/28 02:21:39;;;;;;;14.53;5.30;;;;;;;10.13;100.00;102248.59;4987338;28;20195;-73
2023/05/28 02:24:05;;;;;;;10.67;6.17;;;;;;;10.10;100.00;102250.13;5002070;28;20183;-73
2023/05/28 02:26:31;;;;;;;12.53;5.63;;;;;;;10.06;100.00;102243.13;5008729;28;20221;-73
2023/05/28 02:28:59;;;;;;;10.77;5.57;;;;;;;10.03;100.00;102242.94;5001641;28;20202;-72
2023/05/28 02:31:24;;;;;;;9.13;5.43;;;;;;;10.02;100.00;102249.78;4998951;28;20226;-72
2023/05/28 02:33:50;;;;;;;7.67;5.13;;;;;;;9.95;100.00;102247.72;5007380;28;20221;-73
2023/05/28 02:36:16;;;;;;;11.47;5.77;;;;;;;9.91;100.00;102237.31;4993234;28;20199;-73
2023/05/28 02:38:42;;;;;;;10.57;5.40;;;;;;;9.91;100.00;102235.63;4990774;28;20194;-74
2023/05/28 02:41:08;;;;;;;13.47;5.97;;;;;;;9.91;100.00;102230.50;5000362;28;20628;-75
2023/05/28 02:43:35;;;;;;;11.70;5.83;;;;;;;9.84;100.00;102235.28;5006793;28;20648;-72
2023/05/28 02:46:03;;;;;;;11.27;5.53;;;;;;;9.80;100.00;102234.28;5005642;28;20191;-74
2023/05/28 02:48:29;;;;;;;11.47;5.67;;;;;;;9.83;100.00;102238.66;5004189;28;20243;-73
2023/05/28 02:50:55;;;;;;;13.00;5.17;;;;;;;9.79;100.00;102236.75;5008597;28;20211;-73
2023/05/28 02:53:46;;;;;;;14.23;5.70;;;;;;;9.75;100.00;102229.75;5004990;28;20203;-75
2023/05/28 02:56:12;;;;;;;14.63;5.87;;;;;;;9.75;100.00;102237.41;5008662;28;20205;-73
2023/05/28 02:58:42;;;;;;;12.50;5.77;;;;;;;9.72;100.00;102243.28;5001350;28;20224;-73
2023/05/28 03:01:08;;;;;;;15.23;6.40;;;;;;;9.70;100.00;102238.91;5008734;28;20219;-72
2023/05/28 03:03:34;;;;;;;10.00;5.90;;;;;;;9.64;100.00;102246.31;4994313;28;20198;-74
2023/05/28 03:06:00;;;;;;;12.57;5.90;;;;;;;9.62;100.00;102247.91;4997950;28;20198;-73
2023/05/28 03:08:29;;;;;;;10.93;5.00;;;;;;;9.57;100.00;102250.25;4994553;28;20253;-72
2023/05/28 03:10:55;;;;;;;9.07;5.53;;;;;;;9.55;100.00;102244.22;4995324;28;20638;-74
2023/05/28 03:13:20;;;;;;;9.83;5.20;;;;;;;9.57;100.00;102249.38;4983856;28;20214;-73
2023/05/28 03:15:46;;;;;;;10.57;5.87;;;;;;;9.57;100.00;102237.47;4982165;28;20683;-73
2023/05/28 03:18:11;;;;;;;11.00;5.00;;;;;;;9.56;100.00;102237.41;5008798;28;20286;-72
2023/05/28 03:20:38;;;;;;;10.13;4.97;;;;;;;9.58;100.00;102246.03;5008079;28;20218;-72
2023/05/28 03:23:04;;;;;;;11.57;5.50;;;;;;;9.57;100.00;102249.38;5004479;28;20191;-73
2023/05/28 03:25:37;;;;;;;10.33;5.50;;;;;;;9.57;100.00;102241.69;4989470;28;20190;-74
2023/05/28 03:28:02;;;;;;;12.83;5.73;;;;;;;9.57;100.00;102249.38;5008543;28;20202;-73
2023/05/28 03:30:42;;;;;;;13.13;6.60;;;;;;;9.57;100.00;102250.25;4990980;28;20210;-74
2023/05/28 03:33:07;;;;;;;15.17;6.00;;;;;;;9.55;100.00;102243.31;4990492;28;20708;-74
2023/05/28 03:35:33;;;;;;;11.17;5.50;;;;;;;9.56;100.00;102238.28;5011567;28;20492;-72
2023/05/28 03:37:58;;;;;;;11.40;5.87;;;;;;;9.54;100.00;102249.25;4999200;28;20552;-74
2023/05/28 03:40:24;;;;;;;11.07;5.37;;;;;;;9.52;100.00;102250.84;4991686;28;20237;-73
2023/05/28 03:42:49;;;;;;;12.30;5.73;;;;;;;9.54;100.00;102246.69;5006782;28;20270;-74
2023/05/28 03:45:16;;;;;;;10.33;5.53;;;;;;;9.56;100.00;102238.28;5000945;28;20184;-73
2023/05/28 03:47:41;;;;;;;10.83;5.30;;;;;;;9.58;100.00;102244.34;5004739;28;20266;-73
2023/05/28 03:50:07;;;;;;;15.20;5.80;;;;;;;9.63;100.00;102244.56;4969867;28;20215;-75
2023/05/28 03:52:33;;;;;;;9.90;5.30;;;;;;;9.63;100.00;102247.13;5001553;28;20242;-73
2023/05/28 03:54:59;;;;;;;12.70;5.90;;;;;;;9.67;100.00;102237.09;5004032;28;20206;-72
2023/05/28 03:57:25;;;;;;;11.30;5.53;;;;;;;9.69;100.00;102232.03;4997412;28;20219;-74
2023/05/28 03:59:51;;;;;;;10.83;6.10;;;;;;;9.73;100.00;102236.50;4997975;28;20286;-73
2023/05/28 04:02:16;;;;;;;9.03;5.20;;;;;;;9.77;100.00;102228.16;4999299;28;20175;-74
2023/05/28 04:04:42;;;;;;;10.00;5.70;;;;;;;9.81;100.00;102240.28;4998283;28;20187;-74
2023/05/28 04:07:08;;;;;;;12.67;6.13;;;;;;;9.82;100.00;102242.03;5008588;28;20800;-72
2023/05/28 04:09:33;;;;;;;13.07;5.77;;;;;;;9.87;100.00;102243.09;5004050;28;20242;-72
2023/05/28 04:11:59;;;;;;;11.50;5.97;;;;;;;9.96;100.00;102244.38;5000544;28;20247;-72
2023/05/28 04:14:25;;;;;;;13.80;5.93;;;;;;;10.01;100.00;102240.34;5002065;28;20203;-73
2023/05/28 04:16:53;;;;;;;12.27;8.17;;;;;;;10.10;100.00;102237.34;4997054;28;20221;-73
2023/05/28 04:19:18;;;;;;;14.50;7.17;;;;;;;10.13;100.00;102233.22;4996768;28;20680;-72
2023/05/28 04:21:44;;;;;;;11.47;6.90;;;;;;;10.21;100.00;102233.56;5004638;28;20191;-72
2023/05/28 04:24:10;;;;;;;14.43;6.17;;;;;;;10.28;100.00;102233.03;4996996;28;20241;-72
2023/05/28 04:26:36;;;;;;;11.30;6.07;;;;;;;10.33;100.00;102229.81;5009040;28;20191;-72
2023/05/28 04:29:01;;;;;;;10.57;5.73;;;;;;;10.40;100.00;102229.28;5006469;28;20238;-74
2023/05/28 04:31:27;;;;;;;12.90;6.00;;;;;;;10.46;100.00;102229.53;4992031;28;20208;-72
2023/05/28 04:33:53;;;;;;;10.87;6.07;;;;;;;10.53;100.00;102229.00;4995553;28;20191;-72
2023/05/28 04:36:19;;;;;;;9.53;5.47;;;;;;;10.60;100.00;102237.81;4995011;28;20657;-72
2023/05/28 04:38:45;;;;;;;10.37;5.33;;;;;;;10.68;100.00;102237.31;4988858;28;20215;-72
2023/05/28 04:41:14;;;;;;;9.53;5.07;;;;;;;10.77;100.00;102236.78;5002488;28;20250;-73
2023/05/28 04:43:40;;;;;;;11.80;5.83;;;;;;;10.87;100.00;102234.66;5028565;28;20187;-72
2023/05/28 04:46:08;;;;;;;11.90;6.00;;;;;;;10.99;100.00;102234.28;4993200;28;20195;-72
2023/05/28 04:48:35;;;;;;;15.83;7.07;;;;;;;11.13;100.00;102243.41;4999436;28;20274;-72
2023/05/28 04:51:03;;;;;;;14.33;6.27;;;;;;;11.24;100.00;102239.59;4998104;28;20215;-72
2023/05/28 04:53:29;;;;;;;12.53;6.43;;;;;;;11.34;100.00;102234.84;4980558;28;20194;-72
2023/05/28 04:55:55;;;;;;;15.23;6.17;;;;;;;11.43;100.00;102240.34;4996594;28;20290;-73
2023/05/28 04:58:21;;;;;;;18.30;6.80;;;;;;;11.52;100.00;102240.69;5002868;28;20187;-73
2023/05/28 05:00:47;;;;;;;10.50;6.43;;;;;;;11.62;100.00;102242.81;4996470;28;20532;-74
2023/05/28 05:03:14;;;;;;;14.07;6.70;;;;;;;11.75;100.00;102241.59;4999538;28;20245;-74
2023/05/28 05:05:40;;;;;;;18.10;6.77;;;;;;;11.89;100.00;102236.13;5003207;28;20191;-72
2023/05/28 05:08:08;;;;;;;14.17;6.87;;;;;;;12.05;100.00;102245.25;5000572;28;20187;-74
2023/05/28 05:10:33;;;;;;;12.60;7.27;;;;;;;12.18;100.00;102235.50;5008322;28;20302;-73
2023/05/28 05:12:59;;;;;;;14.67;6.43;;;;;;;12.30;100.00;102235.03;4992321;28;20310;-75
2023/05/28 05:15:26;;;;;;;18.17;7.30;;;;;;;12.40;100.00;102235.38;4984768;28;20226;-73
2023/05/28 05:17:52;;;;;;;13.17;6.23;;;;;;;12.56;100.00;102234.22;4992349;28;20187;-72
2023/05/28 05:20:18;;;;;;;15.63;7.10;;;;;;;12.69;100.00;102236.38;4975612;28;20237;-73
2023/05/28 05:22:43;;;;;;;11.13;6.10;;;;;;;12.82;100.00;102225.69;5005727;28;20183;-73
2023/05/28 05:25:09;;;;;;;16.37;7.17;;;;;;;12.97;100.00;102223.63;4992430;28;20198;-73
2023/05/28 05:27:36;;;;;;;14.87;6.87;;;;;;;13.01;100.00;102219.44;4992432;28;20199;-73
2023/05/28 05:30:03;;;;;;;15.47;6.37;;;;;;;13.15;100.00;102229.34;4992255;28;20235;-74
2023/05/28 05:32:29;;;;;;;14.17;7.00;;;;;;;13.26;100.00;102227.13;4991390;28;20226;-73
2023/05/28 05:34:55;;;;;;;14.40;6.17;;;;;;;13.38;100.00;102230.03;5018830;28;20183;-73
2023/05/28 05:37:43;;;;;;;16.33;6.37;;;;;;;13.57;100.00;102229.75;5009550;28;20230;-74
2023/05/28 05:40:28;;;;;;;10.90;6.27;;;;;;;13.74;100.00;102231.13;5006915;28;20246;-74
2023/05/28 05:43:10;;;;;;;17.27;6.40;;;;;;;13.85;100.00;102227.19;4992412;28;20230;-73
2023/05/28 05:45:35;;;;;;;16.83;6.40;;;;;;;13.98;100.00;102213.78;4991970;28;20187;-73
2023/05/28 05:48:01;;;;;;;12.60;6.20;;;;;;;14.08;100.00;102221.81;4972690;28;20199;-73
2023/05/28 05:50:26;;;;;;;12.73;5.67;;;;;;;14.23;100.00;102221.41;4983014;28;20516;-73
2023/05/28 05:52:52;;;;;;;11.83;5.83;;;;;;;14.39;100.00;102221.84;5000543;28;20210;-73
2023/05/28 05:55:17;;;;;;;12.83;6.20;;;;;;;14.58;100.00;102223.16;5019805;28;20218;-75
2023/05/28 05:57:45;;;;;;;14.37;5.93;;;;;;;14.52;100.00;102226.50;4999016;28;20193;-74
2023/05/28 06:00:13;;;;;;;13.57;5.60;;;;;;;14.69;100.00;102224.34;5017465;28;20238;-73
2023/05/28 06:02:45;;;;;;;14.17;5.60;;;;;;;14.89;100.00;102211.09;4989109;28;20573;-73
2023/05/28 06:05:29;;;;;;;13.97;6.10;;;;;;;15.06;100.00;102217.50;5006615;28;20233;-75
2023/05/28 06:08:08;;;;;;;13.80;5.67;;;;;;;15.29;100.00;102210.28;4990666;28;20213;-73
2023/05/28 06:10:53;;;;;;;13.90;6.00;;;;;;;15.60;100.00;102223.91;5005124;28;20222;-73
2023/05/28 06:13:20;;;;;;;13.97;5.60;;;;;;;15.59;100.00;102209.28;4986624;28;20723;-75
2023/05/28 06:15:46;;;;;;;13.43;6.27;;;;;;;15.82;100.00;102217.47;4991614;28;20186;-74
2023/05/28 06:18:11;;;;;;;12.97;5.87;;;;;;;15.87;100.00;102205.53;4992076;28;20194;-74
2023/05/28 06:20:38;;;;;;;9.50;5.33;;;;;;;16.09;100.00;102202.53;4986920;28;20644;-73
2023/05/28 06:23:03;;;;;;;14.20;5.33;;;;;;;16.21;100.00;102176.91;4991801;28;20278;-74
2023/05/28 06:25:29;;;;;;;14.60;5.60;;;;;;;16.41;100.00;102191.97;5020010;28;20191;-74
2023/05/28 06:27:55;;;;;;;10.83;5.30;;;;;;;16.56;100.00;102175.81;4988542;28;20199;-73
2023/05/28 06:30:21;;;;;;;11.33;5.90;;;;;;;16.18;100.00;102195.81;4991982;28;20207;-75
2023/05/28 06:32:47;;;;;;;9.70;5.43;;;;;;;16.35;100.00;102172.84;4992339;28;20891;-74
2023/05/28 06:35:13;;;;;;;11.30;5.47;;;;;;;16.35;100.00;102167.69;4988495;28;20218;-73
2023/05/28 06:37:39;;;;;;;13.93;5.93;;;;;;;16.33;100.00;102178.00;4989080;28;20191;-73
2023/05/28 06:40:06;;;;;;;11.87;4.80;;;;;;;16.24;100.00;102153.69;4990968;28;20227;-74
2023/05/28 06:42:32;;;;;;;12.70;4.97;;;;;;;16.23;100.00;102128.69;4998200;28;20190;-74
2023/05/28 06:45:17;;;;;;;13.00;5.00;;;;;;;16.39;100.00;102175.50;5018748;28;20225;-75
2023/05/28 06:47:43;;;;;;;13.37;6.23;;;;;;;16.58;100.00;102228.47;5000775;28;20205;-73
2023/05/28 06:50:09;;;;;;;11.93;5.67;;;;;;;16.78;100.00;102186.56;4984954;28;20398;-74
2023/05/28 06:52:34;;;;;;;13.63;5.60;;;;;;;16.96;100.00;102199.78;4992681;28;20770;-74
2023/05/28 06:55:00;;;;;;;12.93;5.87;;;;;;;17.08;100.00;102187.00;4991513;28;20272;-76
2023/05/28 06:57:28;;;;;;;11.00;5.27;;;;;;;17.28;100.00;102159.69;4983292;28;20187;-74
2023/05/28 07:00:16;;;;;;;10.77;4.77;;;;;;;17.49;100.00;102130.59;4991138;28;20238;-74
2023/05/28 07:02:51;;;;;;;10.90;5.50;;;;;;;17.79;100.00;102098.16;4975737;28;20187;-73
2023/05/28 07:05:29;;;;;;;12.37;5.73;;;;;;;18.04;100.00;102101.81;4978426;28;20780;-73
2023/05/28 07:07:55;;;;;;;11.90;5.40;;;;;;;18.04;100.00;102102.69;4993263;28;20266;-75
2023/05/28 07:10:20;;;;;;;10.03;5.10;;;;;;;18.09;100.00;102094.94;4991867;28;20222;-73
2023/05/28 07:12:46;;;;;;;14.97;6.27;;;;;;;18.22;100.00;102114.94;4992726;28;20692;-73
2023/05/28 07:15:11;;;;;;;11.53;5.07;;;;;;;18.52;100.00;102161.94;5003435;28;20656;-74
2023/05/28 07:17:38;;;;;;;11.23;5.37;;;;;;;18.45;100.00;102191.28;5027335;28;20194;-74
2023/05/28 07:20:05;;;;;;;11.10;5.00;;;;;;;18.41;100.00;102210.25;4995705;28;20211;-74
2023/05/28 07:22:53;;;;;;;7.87;4.60;;;;;;;18.36;100.00;102173.91;4986563;28;20183;-72
2023/05/28 07:25:18;;;;;;;10.03;4.27;;;;;;;18.51;100.00;102129.94;4990477;28;20654;-74
2023/05/28 07:27:44;;;;;;;11.87;4.53;;;;;;;18.55;100.00;102087.59;5011182;28;20227;-73
2023/05/28 07:30:11;;;;;;;8.97;4.63;;;;;;;18.56;100.00;102037.44;4992710;28;20219;-73
2023/05/28 07:32:37;;;;;;;11.47;4.40;;;;;;;18.59;100.00;102059.94;5012085;28;21862;-73
2023/05/28 07:35:03;;;;;;;9.30;4.27;;;;;;;18.57;100.00;102022.75;4983412;28;20191;-74
2023/05/28 07:37:29;;;;;;;9.77;4.57;;;;;;;18.52;100.00;101981.19;4996371;28;20249;-73
2023/05/28 07:39:55;;;;;;;11.53;4.70;;;;;;;18.64;100.00;102020.19;5021766;28;20265;-73
2023/05/28 07:42:21;;;;;;;11.00;4.63;;;;;;;18.81;100.00;102034.13;5011954;28;20564;-73
2023/05/28 07:44:55;;;;;;;11.33;4.43;;;;;;;18.92;100.00;102050.59;4990056;28;20198;-73
2023/05/28 07:47:20;;;;;;;7.63;4.07;;;;;;;19.03;100.00;102068.84;5000022;28;20565;-75
2023/05/28 07:50:06;;;;;;;9.43;4.30;;;;;;;19.10;100.00;102076.66;4980493;28;20728;-75
2023/05/28 07:52:51;;;;;;;8.77;4.50;;;;;;;19.12;100.00;102069.72;4982353;28;20199;-74
2023/05/28 07:55:18;;;;;;;9.63;4.87;;;;;;;19.27;100.00;102077.66;4994091;28;20559;-74
2023/05/28 07:57:43;;;;;;;8.50;4.70;;;;;;;19.21;100.00;102030.81;4995134;28;20190;-74
2023/05/28 08:00:12;;;;;;;7.23;4.27;;;;;;;19.30;100.00;102045.63;5003110;28;20225;-73
2023/05/28 08:02:51;;;;;;;13.27;5.43;;;;;;;19.31;100.00;102021.34;5009122;28;20207;-73
2023/05/28 08:05:18;;;;;;;9.87;4.57;;;;;;;19.38;100.00;102023.09;4997489;28;20205;-72
2023/05/28 08:07:44;;;;;;;9.60;4.40;;;;;;;19.48;100.00;102010.13;4996093;28;20198;-73
2023/05/28 08:10:11;;;;;;;8.97;4.20;;;;;;;19.43;100.00;102022.25;4996264;28;20269;-74
2023/05/28 08:12:37;;;;;;;8.53;4.20;;;;;;;19.29;100.00;102026.53;4995237;28;20211;-74
2023/05/28 08:15:04;;;;;;;12.23;4.50;;;;;;;19.43;100.00;102022.25;4979042;28;20188;-74
2023/05/28 08:17:31;;;;;;;7.67;4.43;;;;;;;19.63;100.00;102038.75;4992175;28;20196;-73
2023/05/28 08:20:04;;;;;;;10.63;4.20;;;;;;;19.78;100.00;101997.19;4995490;28;20225;-74
2023/05/28 08:22:45;;;;;;;11.53;4.97;;;;;;;20.20;100.00;101991.13;4993262;28;20195;-73
2023/05/28 08:25:10;;;;;;;8.83;4.57;;;;;;;20.21;100.00;101953.81;4989883;28;20286;-73
2023/05/28 08:27:37;;;;;;;10.93;4.83;;;;;;;20.33;100.00;101943.38;4998789;28;20290;-73
2023/05/28 08:30:03;;;;;;;8.60;4.60;;;;;;;20.36;100.00;101954.66;4978073;28;20680;-73
2023/05/28 08:32:31;;;;;;;8.90;4.23;;;;;;;20.26;100.00;101887.91;4990579;28;20219;-74
2023/05/28 08:34:56;;;;;;;8.83;4.30;;;;;;;20.78;100.00;101855.53;4993354;28;20810;-74
2023/05/28 08:37:23;;;;;;;8.50;4.23;;;;;;;21.36;96.03;101803.88;4991978;28;20191;-74
2023/05/28 08:40:01;;;;;;;8.93;3.70;;;;;;;21.29;97.38;101797.00;4986872;28;20215;-72
2023/05/28 08:42:27;;;;;;;10.93;4.27;;;;;;;21.54;97.24;101803.72;4993001;28;20187;-73
2023/05/28 08:44:54;;;;;;;8.07;3.80;;;;;;;21.71;91.53;101776.63;5003468;28;20195;-72
2023/05/28 08:47:21;;;;;;;9.03;3.90;;;;;;;21.93;83.08;101725.91;4995505;28;20190;-73
2023/05/28 08:50:02;;;;;;;9.53;3.97;;;;;;;22.17;86.36;101767.38;4992432;28;20790;-72
2023/05/28 08:52:34;;;;;;;7.53;3.80;;;;;;;22.12;81.15;101747.44;4981284;28;20705;-72
2023/05/28 08:55:00;;;;;;;7.70;3.63;;;;;;;22.26;79.13;101738.50;4994416;28;20622;-73
2023/05/28 08:57:28;;;;;;;8.67;4.20;;;;;;;22.54;86.04;101793.84;4995627;28;20194;-73
2023/05/28 09:00:05;;;;;;;7.20;3.50;;;;;;;22.68;76.68;101750.13;4990087;28;20269;-74
2023/05/28 09:02:32;;;;;;;9.13;3.70;;;;;;;22.93;71.83;101766.25;4979195;28;20191;-73
2023/05/28 09:04:57;;;;;;;6.67;3.40;;;;;;;22.95;69.97;101773.19;4990480;28;20191;-72
2023/05/28 09:07:26;;;;;;;9.97;4.00;;;;;;;23.18;74.44;101804.16;4994812;28;20560;-73
2023/05/28 09:09:57;;;;;;;7.72;4.00;;;;;;;23.42;72.67;101798.53;4990689;28;20238;-74
2023/05/28 09:12:26;;;;;;;7.63;3.70;;;;;;;23.43;72.07;101821.22;5002452;28;20700;-74
2023/05/28 09:14:58;;;;;;;9.47;3.77;;;;;;;23.57;70.09;101798.28;4978025;28;20603;-73
2023/05/28 09:17:38;;;;;;;5.82;3.08;;;;;;;23.70;59.16;101756.16;4993289;28;20282;-73
2023/05/28 09:20:14;;;;;;;7.80;3.70;;;;;;;23.56;55.81;101762.53;4989893;28;20224;-72
2023/05/28 09:22:40;;;;;;;7.95;3.78;;;;;;;23.49;59.99;101829.81;4993815;28;20183;-72
2023/05/28 09:25:19;;;;;;;5.07;3.27;;;;;;;23.72;58.03;101824.16;4992595;28;20191;-73
2023/05/28 09:28:03;;;;;;;9.52;3.42;;;;;;;23.78;58.47;101822.28;5008465;28;20203;-72
2023/05/28 09:30:35;;;;;;;8.13;3.95;;;;;;;24.01;63.14;101872.47;5004102;28;20215;-73
2023/05/28 09:33:08;;;;;;;6.05;3.50;;;;;;;23.98;56.86;101821.94;4986755;28;20231;-73
2023/05/28 09:35:34;;;;;;;9.95;4.03;;;;;;;24.22;63.05;101872.03;5005676;28;20199;-73
2023/05/28 09:38:07;;;;;;;9.73;4.28;;;;;;;24.36;61.63;101864.75;5009878;28;20198;-72
2023/05/28 09:40:43;;;;;;;6.03;3.53;;;;;;;24.52;57.06;101828.63;4991980;28;20309;-73
2023/05/28 09:43:10;;;;;;;6.95;3.40;;;;;;;24.58;53.88;101833.75;5008531;28;20248;-73
2023/05/28 09:45:36;;;;;;;8.30;3.60;;;;;;;24.35;58.27;101897.09;5005845;28;20196;-72
2023/05/28 09:48:02;;;;;;;7.55;3.80;;;;;;;24.66;58.82;101902.59;5005962;28;20221;-72
2023/05/28 09:50:28;;;;;;;7.10;3.50;;;;;;;24.71;53.29;101843.94;5008722;28;20211;-72
2023/05/28 09:52:58;;;;;;;9.70;4.05;;;;;;;24.91;55.32;101909.88;5008631;28;20273;-72
2023/05/28 09:55:26;;;;;;;8.05;3.75;;;;;;;24.63;52.45;101872.06;5008548;28;20278;-71
2023/05/28 09:58:02;;;;;;;9.25;3.83;;;;;;;25.07;50.99;101857.97;5002655;28;20229;-72
2023/05/28 10:00:54;;;;;;;9.05;3.55;;;;;;;25.26;51.03;101860.13;5005691;28;20215;-72
2023/05/28 10:03:20;;;;;;;6.88;3.47;;;;;;;25.28;51.40;101884.56;5005550;28;20660;-72
2023/05/28 10:05:52;;;;;;;7.78;3.38;;;;;;;25.34;48.77;101873.94;5004957;28;20194;-73
2023/05/28 10:08:20;;;;;;;6.20;3.28;;;;;;;24.87;47.74;101923.94;5008773;28;20203;-72
2023/05/28 10:10:51;;;;;;;9.15;3.90;;;;;;;25.35;48.80;101953.47;4990654;28;20214;-72
2023/05/28 10:13:17;;;;;;;7.45;3.63;;;;;;;25.55;49.34;101975.72;4992060;28;20684;-74
2023/05/28 10:15:43;;;;;;;9.23;3.65;;;;;;;25.84;51.49;102002.13;5003974;28;20202;-72
2023/05/28 10:18:09;;;;;;;5.80;3.40;;;;;;;25.99;49.48;101954.53;5005610;28;20234;-72
2023/05/28 10:20:34;;;;;;;9.93;3.83;;;;;;;25.81;50.03;101951.47;4994189;28;20243;-72
2023/05/28 10:23:00;;;;;;;10.38;3.65;;;;;;;25.88;49.76;101958.28;5005984;28;20619;-72
2023/05/28 10:25:26;;;;;;;8.63;3.63;;;;;;;25.70;45.13;101916.75;5008505;28;20282;-72
2023/05/28 10:27:58;;;;;;;8.40;3.75;;;;;;;26.03;49.08;102005.19;5007883;28;20727;-73
2023/05/28 10:30:32;;;;;;;7.22;3.92;;;;;;;26.50;47.80;101983.78;5005599;28;20249;-73
2023/05/28 10:32:58;;;;;;;7.57;3.60;;;;;;;25.90;45.14;101972.22;5006788;28;20629;-73
2023/05/28 10:35:23;;;;;;;7.00;3.58;;;;;;;25.71;45.00;101981.47;5008374;28;20194;-72
2023/05/28 10:37:49;;;;;;;8.68;3.42;;;;;;;26.45;45.59;102001.44;5005451;28;20229;-72
2023/05/28 10:40:24;;;;;;;6.82;3.53;;;;;;;26.51;44.85;101982.84;5003553;28;20230;-73
2023/05/28 10:42:50;;;;;;;10.10;3.80;;;;;;;26.36;42.90;101970.16;5006850;28;20543;-72
2023/05/28 10:45:15;;;;;;;5.68;3.35;;;;;;;26.51;44.14;102002.13;5007190;28;20245;-72
2023/05/28 10:47:50;;;;;;;6.68;3.47;;;;;;;26.09;43.71;101991.91;5006619;28;20190;-72
2023/05/28 10:50:17;;;;;;;7.43;3.72;;;;;;;26.21;43.59;101988.97;4992302;28;20289;-73
2023/05/28 10:53:04;;;;;;;7.85;3.60;;;;;;;26.38;43.66;101989.38;5006837;28;20580;-72
2023/05/28 10:55:46;;;;;;;8.93;3.78;;;;;;;26.21;38.79;101960.94;5006455;28;20225;-73
2023/05/28 10:58:13;;;;;;;7.30;3.75;;;;;;;26.67;41.79;102024.47;5020613;28;20712;-73
2023/05/28 11:00:42;;;;;;;7.22;3.58;;;;;;;26.83;44.29;102072.25;5000590;28;20284;-73
2023/05/28 11:03:07;;;;;;;6.07;3.40;;;;;;;26.69;45.85;102077.91;5007084;28;20671;-71
2023/05/28 11:05:35;;;;;;;8.60;3.40;;;;;;;26.59;42.75;102029.13;4993850;28;20203;-73
2023/05/28 11:08:01;;;;;;;9.50;4.13;;;;;;;26.59;43.52;102036.13;5010665;28;20195;-72
2023/05/28 11:10:28;;;;;;;7.80;3.40;;;;;;;27.16;43.18;102027.44;5012234;28;20866;-72
2023/05/28 11:12:53;;;;;;;6.78;3.47;;;;;;;27.25;41.20;101973.69;5010385;28;20250;-73
2023/05/28 11:15:21;;;;;;;8.50;4.00;;;;;;;27.16;43.01;102001.13;5009595;28;20915;-74
2023/05/28 11:17:46;;;;;;;8.70;3.88;;;;;;;26.30;39.93;101970.31;5013791;28;20187;-73
2023/05/28 11:20:19;;;;;;;8.07;3.97;;;;;;;25.41;41.19;101977.81;5030374;28;20740;-72